• Join FlightAware (Why Join?)
  • Login
  • US Flag 
03:07AM EST


 

Airport Tracker/Info


-or-


 

Live Flight TrackerFlight Track Log ✈ ASQ5717 ✈ 15-Apr-2013 ✈ KBTV - KIAD

Flight Track Log - Related Links

Times and Time Zones

All times are in EDT time to prevent confusion due to time zone crossing. See the ASQ5717 flight status page for this flight to view local times or setup timezone preferences in your user account.

Time Position Orientation Groundspeed Altitude Reporting Facility
EDT Latitude Longitude Course Direction KTS MPH feet Rate Location/Type
05:51AM 44.3694 -73.1544 195° South 203 234 5,900  Level Boston Center
05:52AM 44.1961 -73.2483 196° South  Level FlightAware Approximate
05:52AM 44.3111 -73.1800 197° South 216 249 8,000  Level Boston Center
05:53AM 44.1062 -73.2842 196° South  Level FlightAware Approximate
05:53AM 44.2317 -73.2136 197° South 261 300 10,300  Level Boston Center
05:54AM 44.0163 -73.3202 196° South  Level FlightAware Approximate
05:54AM 44.1461 -73.2472 196° South 307 353 11,000  Level Boston Center
05:55AM 43.9264 -73.3561 196° South  Level FlightAware Approximate
05:55AM 44.0478 -73.2864 196° South 355 409 12,900  Level Boston Center
05:56AM 43.8362 -73.3903 195° South  Level FlightAware Approximate
05:56AM 43.9494 -73.3283 197° South 374 430 14,800  Level Boston Center
05:57AM 43.8469 -73.3700 196° South 379 436 16,700 1,680 Climbing Boston Center
05:58AM 43.7447 -73.4114 196° South 379 436 18,300 1,200 Climbing Boston Center
05:59AM 43.6525 -73.4472 196° South 384 442 19,400 960 Climbing Boston Center
06:00AM 43.5231 -73.4967 195° South 390 449 20,500 960 Climbing Boston Center
06:01AM 43.4142 -73.5406 196° South 403 464 21,400 900 Climbing Boston Center
06:02AM 43.3011 -73.5842 196° South 414 476 22,300 840 Climbing Boston Center
06:03AM 43.1883 -73.6303 197° South 420 483 23,200 900 Climbing Boston Center
06:04AM 43.0606 -73.6819 196° South 430 495 24,200 960 Climbing Boston Center
06:05AM 42.9475 -73.7278 197° South 430 495 25,100 840 Climbing Boston Center
06:06AM 42.8344 -73.7736 197° South 430 495 26,000 840 Climbing Boston Center
06:07AM 42.7233 -73.8164 196° South 423 487 26,900 900 Climbing Boston Center
06:08AM 42.6144 -73.8647 198° South 423 487 27,800 540 Climbing Boston Center
06:09AM 42.5306 -73.9053 200° South 418 481 28,000 60 Climbing Boston Center
06:10AM 42.3964 -73.9667 199° South 418 481 28,000  Level Boston Center
06:11AM 42.2894 -74.0117 197° South 435 501 28,000  Level Boston Center
06:12AM 42.1683 -74.0394 190° South 441 507 28,000  Level Boston Center
06:13AM 42.0467 -74.0783 193° South 448 516 28,000  Level Boston Center
06:14AM 41.9314 -74.1283 198° South 448 516 28,000  Level Boston Center
06:15AM 41.8158 -74.1839 200° South 448 516 28,000  Level Boston Center
06:17AM 41.5672 -74.2953 199° South 448 516 28,000  Level New York Center
06:18AM 41.4511 -74.3472 199° South 441 507 28,000 -180 Level New York Center
06:19AM 41.3350 -74.3989 198° South 441 507 27,700 -660 Descending New York Center
06:20AM 41.2147 -74.4503 198° South 436 502 26,700 -900 Descending New York Center
06:21AM 41.1175 -74.4919 198° South 400 460 26,000 -360 Descending New York Center
06:22AM 41.0203 -74.5389 200° South 383 441 26,000  Level New York Center
06:23AM 40.9250 -74.5831 199° South 370 426 26,000  Level New York Center
06:24AM 40.8719 -74.6814 235° Southwest 327 376 26,000  Level New York Center
06:25AM 40.8389 -74.7975 249° West 327 376 26,000  Level New York Center
06:26AM 40.8036 -74.9133 248° West 332 382 26,000 -660 Level New York Center
06:27AM 40.7683 -75.0261 248° West 338 389 24,700 -1,620 Descending New York Center
06:28AM 40.7372 -75.1367 250° West 338 389 22,800 -1,980 Descending New York Center
06:29AM 40.7019 -75.2439 247° West 333 383 20,900 -1,440 Descending New York Center
06:30AM 40.6636 -75.3700 248° West 333 383 20,000 -480 Descending New York Center
06:31AM 40.6181 -75.4736 240° Southwest 361 415 20,000  Level New York Center
06:32AM 40.5553 -75.5786 232° Southwest 366 421 20,000  Level New York Center
06:33AM 40.4906 -75.6858 232° Southwest 372 428 20,000  Level New York Center
06:34AM 40.4233 -75.7956 231° Southwest 382 440 20,000  Level New York Center
06:35AM 40.3539 -75.9078 231° Southwest 387 445 20,000  Level New York Center
06:36AM 40.2867 -76.0142 230° Southwest 387 445 20,000  Level New York Center
06:37AM 40.2214 -76.1236 232° Southwest 387 445 20,000  Level New York Center
06:38AM 40.1625 -76.2278 234° Southwest 379 436 20,000 -540 Level New York Center
06:41AM 40.0167 -76.5167 237° Southwest 381 438 18,200 -780 Descending Potomac TRACON
06:42AM 39.9667 -76.6333 241° Southwest 373 429 17,500 -780 Descending Potomac TRACON
06:43AM 39.9167 -76.7333 237° Southwest 363 418 16,700 -900 Descending Potomac TRACON
06:44AM 39.8667 -76.8500 241° Southwest 363 418 15,800 -900 Descending Potomac TRACON
06:45AM 39.8167 -76.9500 237° Southwest 361 415 15,100 -480 Descending Potomac TRACON
06:46AM 39.7667 -77.0667 241° Southwest 343 395 15,000 -960 Descending Potomac TRACON
06:47AM 39.7167 -77.1500 232° Southwest 301 346 13,200 -1,860 Descending Potomac TRACON
06:47AM 39.6833 -77.2167 237° Southwest 293 337 11,700 -1,860 Descending Potomac TRACON
06:48AM 39.6500 -77.3000 243° Southwest 296 341 10,100 -840 Descending Potomac TRACON
06:49AM 39.5833 -77.3667 218° Southwest 285 328 10,100 -300 Level Potomac TRACON
06:50AM 39.5167 -77.4167 210° Southwest 283 326 9,500 -1,200 Descending Potomac TRACON
06:51AM 39.4500 -77.4500 201° Southwest 257 296 7,900 -1,320 Descending Potomac TRACON
06:52AM 39.3833 -77.4500 180° South 258 297 7,100 -540 Descending Potomac TRACON
06:53AM 39.3167 -77.4500 180° South 259 298 6,900 -720 Descending Potomac TRACON
06:54AM 39.2500 -77.4500 180° South 245 282 5,800 -1,200 Descending Potomac TRACON
06:55AM 39.1833 -77.4500 180° South 228 262 4,700 -1,200 Descending Potomac TRACON
06:56AM 39.1167 -77.4500 180° South 226 260 3,400 -1,320 Descending Potomac TRACON